sensor_id;sensor_type;location;lat;lon;timestamp;pressure;altitude;pressure_sealevel;temperature;humidity
59029;BME280;45919;51.420;5.454;2023-01-19T00:00:17;100020.00;;;2.12;76.79
59029;BME280;45919;51.420;5.454;2023-01-19T00:01:19;100026.91;;;2.13;76.82
59029;BME280;45919;51.420;5.454;2023-01-19T00:02:20;100030.38;;;2.14;76.91
59029;BME280;45919;51.420;5.454;2023-01-19T00:03:22;100021.81;;;2.15;76.94
59029;BME280;45919;51.420;5.454;2023-01-19T00:04:23;100022.69;;;2.15;76.95
59029;BME280;45919;51.420;5.454;2023-01-19T00:05:25;100025.31;;;2.17;76.53
59029;BME280;45919;51.420;5.454;2023-01-19T00:06:26;100024.50;;;2.18;76.82
59029;BME280;45919;51.420;5.454;2023-01-19T00:07:29;100033.13;;;2.19;76.74
59029;BME280;45919;51.420;5.454;2023-01-19T00:08:30;100022.81;;;2.19;76.83
59029;BME280;45919;51.420;5.454;2023-01-19T00:09:32;100024.53;;;2.20;77.05
59029;BME280;45919;51.420;5.454;2023-01-19T00:10:33;100023.75;;;2.21;77.02
59029;BME280;45919;51.420;5.454;2023-01-19T00:11:35;100027.22;;;2.21;76.69
59029;BME280;45919;51.420;5.454;2023-01-19T00:12:36;100022.06;;;2.21;76.82
59029;BME280;45919;51.420;5.454;2023-01-19T00:13:38;100020.34;;;2.22;76.65
59029;BME280;45919;51.420;5.454;2023-01-19T00:14:40;100022.06;;;2.21;76.66
59029;BME280;45919;51.420;5.454;2023-01-19T00:15:42;100019.47;;;2.21;77.10
59029;BME280;45919;51.420;5.454;2023-01-19T00:16:43;100025.47;;;2.22;76.99
59029;BME280;45919;51.420;5.454;2023-01-19T00:17:45;100024.63;;;2.21;76.85
59029;BME280;45919;51.420;5.454;2023-01-19T00:18:47;100021.22;;;2.22;76.98
59029;BME280;45919;51.420;5.454;2023-01-19T00:19:48;100018.63;;;2.22;76.99
59029;BME280;45919;51.420;5.454;2023-01-19T00:20:50;100024.63;;;2.21;77.17
59029;BME280;45919;51.420;5.454;2023-01-19T00:21:51;100025.47;;;2.22;77.17
59029;BME280;45919;51.420;5.454;2023-01-19T00:22:53;100028.06;;;2.22;77.01
59029;BME280;45919;51.420;5.454;2023-01-19T00:23:54;100028.06;;;2.22;77.16
59029;BME280;45919;51.420;5.454;2023-01-19T00:24:56;100023.78;;;2.22;77.15
59029;BME280;45919;51.420;5.454;2023-01-19T00:25:57;100032.41;;;2.23;77.10
59029;BME280;45919;51.420;5.454;2023-01-19T00:26:59;100029.88;;;2.24;77.00
59029;BME280;45919;51.420;5.454;2023-01-19T00:28:01;100032.50;;;2.26;77.10
59029;BME280;45919;51.420;5.454;2023-01-19T00:29:03;100028.25;;;2.26;76.97
59029;BME280;45919;51.420;5.454;2023-01-19T00:30:05;100027.41;;;2.27;77.07
59029;BME280;45919;51.420;5.454;2023-01-19T00:31:06;100036.06;;;2.30;76.84
59029;BME280;45919;51.420;5.454;2023-01-19T00:32:08;100033.56;;;2.31;77.18
59029;BME280;45919;51.420;5.454;2023-01-19T00:33:10;100034.44;;;2.32;77.08
59029;BME280;45919;51.420;5.454;2023-01-19T00:34:13;100043.91;;;2.33;77.22
59029;BME280;45919;51.420;5.454;2023-01-19T00:35:15;100038.00;;;2.35;77.15
59029;BME280;45919;51.420;5.454;2023-01-19T00:36:17;100033.72;;;2.36;77.07
59029;BME280;45919;51.420;5.454;2023-01-19T00:37:19;100034.59;;;2.36;76.92
59029;BME280;45919;51.420;5.454;2023-01-19T00:38:20;100036.38;;;2.37;77.00
59029;BME280;45919;51.420;5.454;2023-01-19T00:39:22;100048.38;;;2.37;77.07
59029;BME280;45919;51.420;5.454;2023-01-19T00:40:23;100043.25;;;2.38;77.08
59029;BME280;45919;51.420;5.454;2023-01-19T00:41:25;100035.56;;;2.40;76.93
59029;BME280;45919;51.420;5.454;2023-01-19T00:42:46;100037.34;;;2.41;77.13
59029;BME280;45919;51.420;5.454;2023-01-19T00:43:48;100040.88;;;2.43;76.87
59029;BME280;45919;51.420;5.454;2023-01-19T00:44:50;100041.72;;;2.44;76.94
59029;BME280;45919;51.420;5.454;2023-01-19T00:45:51;100038.38;;;2.46;77.09
59029;BME280;45919;51.420;5.454;2023-01-19T00:46:53;100040.97;;;2.46;77.39
59029;BME280;45919;51.420;5.454;2023-01-19T00:47:55;100035.81;;;2.46;77.28
59029;BME280;45919;51.420;5.454;2023-01-19T00:48:59;100038.38;;;2.46;77.33
59029;BME280;45919;51.420;5.454;2023-01-19T00:50:01;100037.59;;;2.49;77.24
59029;BME280;45919;51.420;5.454;2023-01-19T00:51:02;100039.31;;;2.48;77.43
59029;BME280;45919;51.420;5.454;2023-01-19T00:52:04;100033.31;;;2.49;77.08
59029;BME280;45919;51.420;5.454;2023-01-19T00:53:06;100047.16;;;2.51;77.13
59029;BME280;45919;51.420;5.454;2023-01-19T00:54:07;100038.53;;;2.51;76.90
59029;BME280;45919;51.420;5.454;2023-01-19T00:55:11;100042.00;;;2.51;77.04
59029;BME280;45919;51.420;5.454;2023-01-19T00:56:13;100041.09;;;2.51;76.87
59029;BME280;45919;51.420;5.454;2023-01-19T00:57:15;100039.47;;;2.53;76.76
59029;BME280;45919;51.420;5.454;2023-01-19T00:58:16;100036.84;;;2.51;76.69
59029;BME280;45919;51.420;5.454;2023-01-19T00:59:18;100035.94;;;2.51;77.00
59029;BME280;45919;51.420;5.454;2023-01-19T01:00:19;100039.41;;;2.51;76.90
59029;BME280;45919;51.420;5.454;2023-01-19T01:01:21;100035.91;;;2.49;76.76
59029;BME280;45919;51.420;5.454;2023-01-19T01:02:23;100039.38;;;2.50;76.76
59029;BME280;45919;51.420;5.454;2023-01-19T01:03:25;100035.91;;;2.49;76.57
59029;BME280;45919;51.420;5.454;2023-01-19T01:04:28;100035.03;;;2.49;76.99
59029;BME280;45919;51.420;5.454;2023-01-19T01:05:30;100022.97;;;2.48;76.82
59029;BME280;45919;51.420;5.454;2023-01-19T01:06:31;100026.38;;;2.47;76.73
59029;BME280;45919;51.420;5.454;2023-01-19T01:07:33;100031.53;;;2.47;76.90
59029;BME280;45919;51.420;5.454;2023-01-19T01:08:40;100031.53;;;2.47;76.83
59029;BME280;45919;51.420;5.454;2023-01-19T01:09:42;100025.44;;;2.45;76.82
59029;BME280;45919;51.420;5.454;2023-01-19T01:10:43;100032.28;;;2.44;76.80
59029;BME280;45919;51.420;5.454;2023-01-19T01:11:44;100040.91;;;2.45;76.76
59029;BME280;45919;51.420;5.454;2023-01-19T01:12:46;100028.81;;;2.44;76.83
59029;BME280;45919;51.420;5.454;2023-01-19T01:13:48;100029.66;;;2.43;77.09
59029;BME280;45919;51.420;5.454;2023-01-19T01:14:50;100031.34;;;2.42;76.77
59029;BME280;45919;51.420;5.454;2023-01-19T01:15:52;100024.50;;;2.43;77.03
59029;BME280;45919;51.420;5.454;2023-01-19T01:16:54;100031.34;;;2.42;76.88
59029;BME280;45919;51.420;5.454;2023-01-19T01:17:55;100030.47;;;2.42;77.00
59029;BME280;45919;51.420;5.454;2023-01-19T01:18:57;100030.47;;;2.42;76.88
59029;BME280;45919;51.420;5.454;2023-01-19T01:19:58;100028.78;;;2.42;76.91
59029;BME280;45919;51.420;5.454;2023-01-19T01:21:04;100034.81;;;2.43;77.35
59029;BME280;45919;51.420;5.454;2023-01-19T01:22:07;100027.88;;;2.42;77.24
59029;BME280;45919;51.420;5.454;2023-01-19T01:23:08;100037.41;;;2.43;77.13
59029;BME280;45919;51.420;5.454;2023-01-19T01:24:10;100030.47;;;2.42;77.03
59029;BME280;45919;51.420;5.454;2023-01-19T01:25:12;100028.78;;;2.42;77.22
59029;BME280;45919;51.420;5.454;2023-01-19T01:26:14;100028.78;;;2.42;77.04
59029;BME280;45919;51.420;5.454;2023-01-19T01:27:15;100030.56;;;2.43;77.38
59029;BME280;45919;51.420;5.454;2023-01-19T01:28:17;100030.47;;;2.42;77.08
59029;BME280;45919;51.420;5.454;2023-01-19T01:29:18;100031.34;;;2.42;77.24
59029;BME280;45919;51.420;5.454;2023-01-19T01:30:20;100035.63;;;2.42;77.10
59029;BME280;45919;51.420;5.454;2023-01-19T01:31:22;100039.97;;;2.43;77.09
59029;BME280;45919;51.420;5.454;2023-01-19T01:32:23;100040.78;;;2.42;77.01
59029;BME280;45919;51.420;5.454;2023-01-19T01:33:24;100041.63;;;2.41;76.93
59029;BME280;45919;51.420;5.454;2023-01-19T01:34:26;100033.94;;;2.42;76.96
59029;BME280;45919;51.420;5.454;2023-01-19T01:35:28;100042.59;;;2.44;77.18
59029;BME280;45919;51.420;5.454;2023-01-19T01:36:29;100037.50;;;2.46;77.16
59029;BME280;45919;51.420;5.454;2023-01-19T01:37:34;100043.53;;;2.46;77.16
59029;BME280;45919;51.420;5.454;2023-01-19T01:38:36;100041.91;;;2.48;77.14
59029;BME280;45919;51.420;5.454;2023-01-19T01:39:37;100039.38;;;2.50;77.17
59029;BME280;45919;51.420;5.454;2023-01-19T01:40:39;100038.47;;;2.49;77.10
59029;BME280;45919;51.420;5.454;2023-01-19T01:41:40;100045.47;;;2.52;77.28
59029;BME280;45919;51.420;5.454;2023-01-19T01:42:42;100043.81;;;2.54;77.24
59029;BME280;45919;51.420;5.454;2023-01-19T01:43:46;100045.50;;;2.54;77.37
59029;BME280;45919;51.420;5.454;2023-01-19T01:45:02;100055.00;;;2.55;77.25
59029;BME280;45919;51.420;5.454;2023-01-19T01:46:06;100049.03;;;2.56;77.16
59029;BME280;45919;51.420;5.454;2023-01-19T01:47:07;100048.25;;;2.58;77.28
59029;BME280;45919;51.420;5.454;2023-01-19T01:48:10;100050.88;;;2.60;77.01
59029;BME280;45919;51.420;5.454;2023-01-19T01:49:14;100048.28;;;2.60;77.12
59029;BME280;45919;51.420;5.454;2023-01-19T01:50:17;100046.59;;;2.60;77.03
59029;BME280;45919;51.420;5.454;2023-01-19T01:51:25;100055.22;;;2.61;77.11
59029;BME280;45919;51.420;5.454;2023-01-19T01:52:28;100045.88;;;2.65;76.75
59029;BME280;45919;51.420;5.454;2023-01-19T01:53:31;100045.00;;;2.64;76.86
59029;BME280;45919;51.420;5.454;2023-01-19T01:54:34;100045.88;;;2.65;76.79
59029;BME280;45919;51.420;5.454;2023-01-19T01:55:36;100040.72;;;2.65;76.80
59029;BME280;45919;51.420;5.454;2023-01-19T01:56:44;100047.56;;;2.64;77.09
59029;BME280;45919;51.420;5.454;2023-01-19T01:57:48;100042.47;;;2.66;76.78
59029;BME280;45919;51.420;5.454;2023-01-19T01:58:50;100051.09;;;2.66;76.90
59029;BME280;45919;51.420;5.454;2023-01-19T01:59:52;100045.94;;;2.66;77.14
59029;BME280;45919;51.420;5.454;2023-01-19T02:00:55;100048.56;;;2.68;76.89
59029;BME280;45919;51.420;5.454;2023-01-19T02:02:20;100053.78;;;2.69;77.06
59029;BME280;45919;51.420;5.454;2023-01-19T02:03:40;100061.63;;;2.72;76.79
59029;BME280;45919;51.420;5.454;2023-01-19T02:04:43;100062.63;;;2.76;76.97
59029;BME280;45919;51.420;5.454;2023-01-19T02:05:46;100059.19;;;2.77;77.07
59029;BME280;45919;51.420;5.454;2023-01-19T02:06:47;100062.66;;;2.78;77.01
59029;BME280;45919;51.420;5.454;2023-01-19T02:08:15;100067.88;;;2.79;76.73
59029;BME280;45919;51.420;5.454;2023-01-19T02:09:37;100066.19;;;2.80;76.89
59029;BME280;45919;51.420;5.454;2023-01-19T02:10:57;100067.97;;;2.82;76.95
59029;BME280;45919;51.420;5.454;2023-01-19T02:12:19;100066.19;;;2.80;76.84
59029;BME280;45919;51.420;5.454;2023-01-19T02:13:40;100067.91;;;2.81;77.05
59029;BME280;45919;51.420;5.454;2023-01-19T02:14:47;100064.53;;;2.82;77.03
59029;BME280;45919;51.420;5.454;2023-01-19T02:15:49;100057.66;;;2.82;77.04
59029;BME280;45919;51.420;5.454;2023-01-19T02:16:51;100062.09;;;2.86;77.23
59029;BME280;45919;51.420;5.454;2023-01-19T02:17:53;100068.16;;;2.87;77.14
59029;BME280;45919;51.420;5.454;2023-01-19T02:18:55;100063.84;;;2.87;76.95
59029;BME280;45919;51.420;5.454;2023-01-19T02:19:57;100071.59;;;2.87;77.06
59029;BME280;45919;51.420;5.454;2023-01-19T02:21:02;100067.41;;;2.91;76.88
59029;BME280;45919;51.420;5.454;2023-01-19T02:22:06;100069.13;;;2.91;76.90
59029;BME280;45919;51.420;5.454;2023-01-19T02:23:13;100066.69;;;2.95;77.14
59029;BME280;45919;51.420;5.454;2023-01-19T02:24:15;100068.47;;;2.96;76.99
59029;BME280;45919;51.420;5.454;2023-01-19T02:25:17;100064.91;;;2.93;77.02
59029;BME280;45919;51.420;5.454;2023-01-19T02:26:24;100065.75;;;2.93;77.29
59029;BME280;45919;51.420;5.454;2023-01-19T02:27:26;100067.47;;;2.93;77.15
59029;BME280;45919;51.420;5.454;2023-01-19T02:28:28;100072.50;;;2.90;76.98
59029;BME280;45919;51.420;5.454;2023-01-19T02:29:30;100062.25;;;2.91;77.20
59029;BME280;45919;51.420;5.454;2023-01-19T02:30:32;100060.50;;;2.90;77.19
59029;BME280;45919;51.420;5.454;2023-01-19T02:31:36;100070.16;;;2.96;77.46
59029;BME280;45919;51.420;5.454;2023-01-19T02:32:39;100063.31;;;2.96;77.06
59029;BME280;45919;51.420;5.454;2023-01-19T02:33:40;100070.81;;;2.90;77.34
59029;BME280;45919;51.420;5.454;2023-01-19T02:34:42;100069.97;;;2.91;77.37
59029;BME280;45919;51.420;5.454;2023-01-19T02:35:43;100067.22;;;2.85;77.43
59029;BME280;45919;51.420;5.454;2023-01-19T02:36:50;100071.50;;;2.84;77.54
59029;BME280;45919;51.420;5.454;2023-01-19T02:37:53;100073.97;;;2.81;77.34
59029;BME280;45919;51.420;5.454;2023-01-19T02:38:55;100078.16;;;2.78;77.41
59029;BME280;45919;51.420;5.454;2023-01-19T02:39:57;100073.91;;;2.80;77.57
59029;BME280;45919;51.420;5.454;2023-01-19T02:41:02;100066.06;;;2.77;77.69
59029;BME280;45919;51.420;5.454;2023-01-19T02:42:07;100068.50;;;2.72;77.60
59029;BME280;45919;51.420;5.454;2023-01-19T02:43:10;100074.59;;;2.74;77.71
59029;BME280;45919;51.420;5.454;2023-01-19T02:44:12;100075.53;;;2.76;77.76
59029;BME280;45919;51.420;5.454;2023-01-19T02:45:17;100078.84;;;2.73;77.94
59029;BME280;45919;51.420;5.454;2023-01-19T02:46:19;100073.66;;;2.72;77.95
59029;BME280;45919;51.420;5.454;2023-01-19T02:47:21;100080.34;;;2.67;77.72
59029;BME280;45919;51.420;5.454;2023-01-19T02:48:23;100078.56;;;2.66;78.05
59029;BME280;45919;51.420;5.454;2023-01-19T02:49:28;100092.22;;;2.61;78.35
59029;BME280;45919;51.420;5.454;2023-01-19T02:50:37;100077.50;;;2.59;78.29
59029;BME280;45919;51.420;5.454;2023-01-19T02:51:41;100075.78;;;2.59;78.42
59029;BME280;45919;51.420;5.454;2023-01-19T02:52:43;100082.66;;;2.59;78.37
59029;BME280;45919;51.420;5.454;2023-01-19T02:55:10;100088.84;;;2.64;78.63
59029;BME280;45919;51.420;5.454;2023-01-19T02:56:34;100085.19;;;2.57;78.31
59029;BME280;45919;51.420;5.454;2023-01-19T02:58:48;100092.56;;;2.48;78.67
59029;BME280;45919;51.420;5.454;2023-01-19T03:03:25;100090.69;;;2.44;78.74
59029;BME280;45919;51.420;5.454;2023-01-19T03:06:50;100098.22;;;2.37;78.76
59029;BME280;45919;51.420;5.454;2023-01-19T03:09:11;100102.94;;;2.25;79.23
59029;BME280;45919;51.420;5.454;2023-01-19T03:11:23;100098.38;;;2.18;79.36
59029;BME280;45919;51.420;5.454;2023-01-19T03:13:56;100101.59;;;2.12;79.43
59029;BME280;45919;51.420;5.454;2023-01-19T03:15:04;100103.03;;;2.05;79.46
59029;BME280;45919;51.420;5.454;2023-01-19T03:16:11;100102.97;;;2.03;79.66
59029;BME280;45919;51.420;5.454;2023-01-19T03:17:15;100100.53;;;2.07;80.03
59029;BME280;45919;51.420;5.454;2023-01-19T03:18:18;100106.44;;;2.04;79.63
59029;BME280;45919;51.420;5.454;2023-01-19T03:20:31;100102.81;;;1.99;79.82
59029;BME280;45919;51.420;5.454;2023-01-19T03:21:33;100102.75;;;1.97;79.76
59029;BME280;45919;51.420;5.454;2023-01-19T03:22:36;100111.34;;;1.98;79.91
59029;BME280;45919;51.420;5.454;2023-01-19T03:23:39;100103.72;;;1.99;79.99
59029;BME280;45919;51.420;5.454;2023-01-19T03:24:42;100103.56;;;1.96;80.01
59029;BME280;45919;51.420;5.454;2023-01-19T03:25:45;100104.44;;;1.97;79.89
59029;BME280;45919;51.420;5.454;2023-01-19T03:26:49;100109.56;;;1.95;79.72
59029;BME280;45919;51.420;5.454;2023-01-19T03:27:52;100106.13;;;1.96;79.97
59029;BME280;45919;51.420;5.454;2023-01-19T03:28:54;100115.66;;;1.97;79.87
59029;BME280;45919;51.420;5.454;2023-01-19T03:29:58;100111.25;;;1.95;80.06
59029;BME280;45919;51.420;5.454;2023-01-19T03:31:04;100109.56;;;1.95;80.07
59029;BME280;45919;51.420;5.454;2023-01-19T03:32:08;100114.50;;;1.90;79.72
59029;BME280;45919;51.420;5.454;2023-01-19T03:33:15;100112.66;;;1.86;79.87
59029;BME280;45919;51.420;5.454;2023-01-19T03:34:18;100107.44;;;1.85;79.79
59029;BME280;45919;51.420;5.454;2023-01-19T03:35:23;100115.28;;;1.88;80.29
59029;BME280;45919;51.420;5.454;2023-01-19T03:36:34;100115.19;;;1.85;80.32
59029;BME280;45919;51.420;5.454;2023-01-19T03:37:36;100121.13;;;1.84;80.00
59029;BME280;45919;51.420;5.454;2023-01-19T03:38:39;100120.13;;;1.80;80.22
59029;BME280;45919;51.420;5.454;2023-01-19T03:39:42;100121.75;;;1.78;80.25
59029;BME280;45919;51.420;5.454;2023-01-19T03:40:44;100121.69;;;1.76;80.11
59029;BME280;45919;51.420;5.454;2023-01-19T03:41:47;100130.31;;;1.77;80.33
59029;BME280;45919;51.420;5.454;2023-01-19T03:42:51;100134.78;;;1.81;80.49
59029;BME280;45919;51.420;5.454;2023-01-19T03:43:53;100129.47;;;1.78;80.05
59029;BME280;45919;51.420;5.454;2023-01-19T03:44:55;100128.63;;;1.77;80.36
59029;BME280;45919;51.420;5.454;2023-01-19T03:46:00;100128.44;;;1.73;80.09
59029;BME280;45919;51.420;5.454;2023-01-19T03:47:03;100129.25;;;1.72;80.03
59029;BME280;45919;51.420;5.454;2023-01-19T03:48:06;100134.53;;;1.75;80.43
59029;BME280;45919;51.420;5.454;2023-01-19T03:49:08;100137.03;;;1.73;80.62
59029;BME280;45919;51.420;5.454;2023-01-19T03:50:11;100141.13;;;1.68;80.05
59029;BME280;45919;51.420;5.454;2023-01-19T03:51:14;100141.13;;;1.68;80.35
59029;BME280;45919;51.420;5.454;2023-01-19T03:52:16;100143.56;;;1.65;80.57
59029;BME280;45919;51.420;5.454;2023-01-19T03:53:18;100138.34;;;1.63;80.21
59029;BME280;45919;51.420;5.454;2023-01-19T03:54:20;100144.41;;;1.64;80.74
59029;BME280;45919;51.420;5.454;2023-01-19T03:55:21;100149.47;;;1.62;80.37
59029;BME280;45919;51.420;5.454;2023-01-19T03:56:23;100142.75;;;1.66;80.92
59029;BME280;45919;51.420;5.454;2023-01-19T03:57:25;100140.06;;;1.63;80.44
59029;BME280;45919;51.420;5.454;2023-01-19T03:58:27;100151.94;;;1.59;80.41
59029;BME280;45919;51.420;5.454;2023-01-19T03:59:29;100151.06;;;1.59;80.51
59029;BME280;45919;51.420;5.454;2023-01-19T04:00:30;100146.78;;;1.59;80.73
59029;BME280;45919;51.420;5.454;2023-01-19T04:01:32;100150.16;;;1.58;81.04
59029;BME280;45919;51.420;5.454;2023-01-19T04:02:33;100147.53;;;1.57;80.98
59029;BME280;45919;51.420;5.454;2023-01-19T04:03:35;100162.97;;;1.57;80.77
59029;BME280;45919;51.420;5.454;2023-01-19T04:04:36;100154.38;;;1.56;81.19
59029;BME280;45919;51.420;5.454;2023-01-19T04:05:38;100151.75;;;1.54;80.82
59029;BME280;45919;51.420;5.454;2023-01-19T04:06:40;100157.72;;;1.53;81.30
59029;BME280;45919;51.420;5.454;2023-01-19T04:07:41;100160.28;;;1.53;80.95
59029;BME280;45919;51.420;5.454;2023-01-19T04:08:43;100167.97;;;1.52;81.05
59029;BME280;45919;51.420;5.454;2023-01-19T04:09:44;100161.81;;;1.48;81.16
59029;BME280;45919;51.420;5.454;2023-01-19T04:10:46;100171.16;;;1.46;81.05
59029;BME280;45919;51.420;5.454;2023-01-19T04:11:47;100175.34;;;1.44;81.28
59029;BME280;45919;51.420;5.454;2023-01-19T04:12:49;100177.09;;;1.45;81.39
59029;BME280;45919;51.420;5.454;2023-01-19T04:13:57;100172.78;;;1.44;81.18
59029;BME280;45919;51.420;5.454;2023-01-19T04:14:58;100178.03;;;1.47;81.33
59029;BME280;45919;51.420;5.454;2023-01-19T04:16:00;100177.94;;;1.44;81.09
59029;BME280;45919;51.420;5.454;2023-01-19T04:17:01;100178.72;;;1.43;81.48
59029;BME280;45919;51.420;5.454;2023-01-19T04:18:03;100174.47;;;1.43;81.45
59029;BME280;45919;51.420;5.454;2023-01-19T04:19:05;100176.25;;;1.45;81.39
59029;BME280;45919;51.420;5.454;2023-01-19T04:20:07;100179.72;;;1.47;81.36
59029;BME280;45919;51.420;5.454;2023-01-19T04:21:09;100098.59;;;0.92;81.66
59029;BME280;45919;51.420;5.454;2023-01-19T04:22:11;100180.56;;;1.46;81.42
59029;BME280;45919;51.420;5.454;2023-01-19T04:23:12;100184.88;;;1.47;81.67
59029;BME280;45919;51.420;5.454;2023-01-19T04:24:14;100186.66;;;1.48;81.38
59029;BME280;45919;51.420;5.454;2023-01-19T04:25:15;100176.34;;;1.48;81.20
59029;BME280;45919;51.420;5.454;2023-01-19T04:26:16;100181.50;;;1.48;81.42
59029;BME280;45919;51.420;5.454;2023-01-19T04:27:18;100184.97;;;1.48;81.43
59029;BME280;45919;51.420;5.454;2023-01-19T04:28:19;100191.03;;;1.50;81.47
59029;BME280;45919;51.420;5.454;2023-01-19T04:29:21;100191.03;;;1.50;81.34
59029;BME280;45919;51.420;5.454;2023-01-19T04:30:23;100200.53;;;1.51;81.55
59029;BME280;45919;51.420;5.454;2023-01-19T04:31:24;100195.31;;;1.50;81.39
59029;BME280;45919;51.420;5.454;2023-01-19T04:32:26;100203.09;;;1.51;81.81
59029;BME280;45919;51.420;5.454;2023-01-19T04:33:27;100206.56;;;1.52;81.37
59029;BME280;45919;51.420;5.454;2023-01-19T04:34:29;100208.25;;;1.51;81.62
59029;BME280;45919;51.420;5.454;2023-01-19T04:35:30;100201.34;;;1.50;81.39
59029;BME280;45919;51.420;5.454;2023-01-19T04:36:32;100209.06;;;1.50;81.39
59029;BME280;45919;51.420;5.454;2023-01-19T04:37:33;100195.31;;;1.50;81.22
59029;BME280;45919;51.420;5.454;2023-01-19T04:38:35;100198.91;;;1.53;81.81
59029;BME280;45919;51.420;5.454;2023-01-19T04:39:36;100200.53;;;1.51;81.36
59029;BME280;45919;51.420;5.454;2023-01-19T04:40:38;100204.78;;;1.51;81.58
59029;BME280;45919;51.420;5.454;2023-01-19T04:41:39;100209.25;;;1.55;81.96
59029;BME280;45919;51.420;5.454;2023-01-19T04:42:44;100208.44;;;1.56;81.60
59029;BME280;45919;51.420;5.454;2023-01-19T04:43:45;100210.06;;;1.54;81.44
59029;BME280;45919;51.420;5.454;2023-01-19T04:44:47;100208.25;;;1.51;81.40
59029;BME280;45919;51.420;5.454;2023-01-19T04:45:49;100214.19;;;1.50;81.28
59029;BME280;45919;51.420;5.454;2023-01-19T04:46:50;100214.34;;;1.53;81.74
59029;BME280;45919;51.420;5.454;2023-01-19T04:47:52;100210.78;;;1.50;81.75
59029;BME280;45919;51.420;5.454;2023-01-19T04:48:53;100213.28;;;1.48;81.76
59029;BME280;45919;51.420;5.454;2023-01-19T04:49:55;100209.81;;;1.48;81.59
59029;BME280;45919;51.420;5.454;2023-01-19T04:50:56;100213.28;;;1.48;81.71
59029;BME280;45919;51.420;5.454;2023-01-19T04:51:58;100211.44;;;1.46;81.67
59029;BME280;45919;51.420;5.454;2023-01-19T04:52:59;100214.97;;;1.48;82.08
59029;BME280;45919;51.420;5.454;2023-01-19T04:54:02;100218.34;;;1.47;81.82
59029;BME280;45919;51.420;5.454;2023-01-19T04:55:04;100214.97;;;1.48;82.46
59029;BME280;45919;51.420;5.454;2023-01-19T04:56:06;100208.94;;;1.47;81.94
59029;BME280;45919;51.420;5.454;2023-01-19T04:57:08;100208.94;;;1.47;81.82
59029;BME280;45919;51.420;5.454;2023-01-19T04:58:09;100209.69;;;1.45;82.03
59029;BME280;45919;51.420;5.454;2023-01-19T04:59:11;100217.44;;;1.45;81.99
59029;BME280;45919;51.420;5.454;2023-01-19T05:00:12;100220.06;;;1.46;82.30
59029;BME280;45919;51.420;5.454;2023-01-19T05:01:14;100209.00;;;1.49;82.16
59029;BME280;45919;51.420;5.454;2023-01-19T05:02:15;100216.72;;;1.49;82.13
59029;BME280;45919;51.420;5.454;2023-01-19T05:03:18;100210.78;;;1.50;82.09
59029;BME280;45919;51.420;5.454;2023-01-19T05:04:19;100218.63;;;1.53;82.37
59029;BME280;45919;51.420;5.454;2023-01-19T05:05:22;100223.81;;;1.54;81.92
59029;BME280;45919;51.420;5.454;2023-01-19T05:06:24;100215.34;;;1.57;82.03
59029;BME280;45919;51.420;5.454;2023-01-19T05:07:25;100222.13;;;1.55;81.68
59029;BME280;45919;51.420;5.454;2023-01-19T05:08:27;100209.25;;;1.55;82.14
59029;BME280;45919;51.420;5.454;2023-01-19T05:09:28;100208.50;;;1.58;81.82
59029;BME280;45919;51.420;5.454;2023-01-19T05:10:30;100208.44;;;1.56;82.15
59029;BME280;45919;51.420;5.454;2023-01-19T05:11:31;100206.69;;;1.55;82.00
59029;BME280;45919;51.420;5.454;2023-01-19T05:12:33;100199.91;;;1.57;81.74
59029;BME280;45919;51.420;5.454;2023-01-19T05:13:34;100203.34;;;1.58;81.67
59029;BME280;45919;51.420;5.454;2023-01-19T05:14:36;100197.97;;;1.51;83.79
59029;BME280;45919;51.420;5.454;2023-01-19T05:15:37;100192.03;;;1.54;83.50
59029;BME280;45919;51.420;5.454;2023-01-19T05:16:39;100184.41;;;1.55;82.75
59029;BME280;45919;51.420;5.454;2023-01-19T05:17:41;100182.69;;;1.56;82.77
59029;BME280;45919;51.420;5.454;2023-01-19T05:18:42;100178.50;;;1.58;82.74
59029;BME280;45919;51.420;5.454;2023-01-19T05:19:43;100176.91;;;1.62;82.55
59029;BME280;45919;51.420;5.454;2023-01-19T05:20:45;100179.56;;;1.63;82.67
59029;BME280;45919;51.420;5.454;2023-01-19T05:21:47;100166.81;;;1.66;82.78
59029;BME280;45919;51.420;5.454;2023-01-19T05:22:48;100169.50;;;1.70;82.57
59029;BME280;45919;51.420;5.454;2023-01-19T05:23:50;100172.22;;;1.73;82.68
59029;BME280;45919;51.420;5.454;2023-01-19T05:24:52;100156.88;;;1.76;82.39
59029;BME280;45919;51.420;5.454;2023-01-19T05:25:54;100158.69;;;1.78;82.38
59029;BME280;45919;51.420;5.454;2023-01-19T05:26:57;100154.56;;;1.82;82.11
59029;BME280;45919;51.420;5.454;2023-01-19T05:27:58;100151.16;;;1.83;82.20
59029;BME280;45919;51.420;5.454;2023-01-19T05:29:00;100150.41;;;1.86;82.26
59029;BME280;45919;51.420;5.454;2023-01-19T05:30:02;100153.03;;;1.87;82.10
59029;BME280;45919;51.420;5.454;2023-01-19T05:31:05;100156.59;;;1.91;81.76
59029;BME280;45919;51.420;5.454;2023-01-19T05:32:06;100160.13;;;1.93;82.09
59029;BME280;45919;51.420;5.454;2023-01-19T05:33:08;100157.59;;;1.95;81.96
59029;BME280;45919;51.420;5.454;2023-01-19T05:34:10;100161.97;;;1.96;82.06
59029;BME280;45919;51.420;5.454;2023-01-19T05:35:11;100160.28;;;1.98;81.98
59029;BME280;45919;51.420;5.454;2023-01-19T05:36:13;100172.44;;;2.00;81.60
59029;BME280;45919;51.420;5.454;2023-01-19T05:37:15;100167.34;;;2.02;81.35
59029;BME280;45919;51.420;5.454;2023-01-19T05:38:17;100182.84;;;2.03;81.30
59029;BME280;45919;51.420;5.454;2023-01-19T05:39:26;100192.34;;;2.05;81.06
59029;BME280;45919;51.420;5.454;2023-01-19T05:40:28;100200.94;;;2.05;81.16
59029;BME280;45919;51.420;5.454;2023-01-19T05:41:30;100198.25;;;2.02;80.71
59029;BME280;45919;51.420;5.454;2023-01-19T05:42:31;100200.72;;;1.99;80.87
59029;BME280;45919;51.420;5.454;2023-01-19T05:43:33;100205.03;;;2.00;81.00
59029;BME280;45919;51.420;5.454;2023-01-19T05:44:34;100200.66;;;1.97;80.84
59029;BME280;45919;51.420;5.454;2023-01-19T05:45:36;100207.50;;;1.97;80.92
59029;BME280;45919;51.420;5.454;2023-01-19T05:46:39;100202.28;;;1.95;80.74